Airfield :
LOGIN :

Register | Disclaimer

   EN    FR    IT 

 










Legend :    VFR   Marginal VFR   IFR   Intensive IFR   Very Intensive IFR
Visi :
Ceiling :
>= 8 km
>= 3000ft
5 to 8 km
1000 to 3000 ft
1500m to 5 km
500 to 1000 ft
800 to 1500m
200 to 500 ft
< 800m
< 200 ft
Symbols :   Thunderstorms  Fog  Heavy snow  Heavy precipitations  Wind > 20 kt
SIGMETs :     Misc.  Thunderstorms  Icing  Turbulence  Mountain Waves  Volcanic Ashes







- Airport Elevation : 49 ft
- IATA code : SEN
- Download approach charts


EGMC - Southend

CURRENT METAR :
  • 190850Z 08012KT 9999 SCT029 BKN034 08/04 Q1022

EXPIRED METARs :
  • 190820Z 08013KT 9999 FEW029 BKN034 08/03 Q1022
  • 190750Z 08012KT 9999 FEW029 BKN034 08/02 Q1022
  • 190720Z 08012KT 9999 BKN030 08/02 Q1022
  • 190650Z 08012KT 9999 BKN029 08/02 Q1022
  • 190620Z 08012KT 9999 BKN034 07/02 Q1023

TAF TAF EGMC
Valid from the 19 at 09:00 until the 19 at 18:00 UTC


190800Z 1909/1918 06015KT 9999 BKN022
PROB40
TEMPO 1909/1918 6000 SHRA
PROB30
TEMPO 1909/1918 07018G28KT
No reported NOTAMs for that airfield.



MET'MAP, your aeronautical weather chart ! - Copyright ORBIFLY December 2007 - Disclaimer

ORBIFLY MET'MAP TEAM :

Programming & Development : Alexandra Zaïnal
Concept & Development : Baudouin d'Aumeries
Co-Development & Prog : Marc-Olivier Méhu
Technical & hardware support : Manuel Goepfert

Contact : metmap@orbifly.com




SOURCES & CREDITS :

   NOAA